昆明 の空港の天気 - METARとTAF

昆明巫家餽国際空港 ( ZPPP / KMG ) - 中華人民共和国 雲南省昆明市
飛行場実況気象(Metar)
観測時間08/17 11:00 CST (08/17 03:00 UTC)
風向・風速北 3m/s
視程10km以上
天気現象
少しの雲 雲底高度 700m
全天の4割程度の雲 雲底高度 700m
全天の8割程度の雲 雲底高度 1220m
気温22℃
湿度65%
気圧1020hPa
METARZPPP 170300Z VRB03MPS 9999 FEW023TCU SCT023 BKN040 22/15 Q1020 NOSIG
過去の天気等 Google飛行場航空写真 Wunderground天気予報

過去48時間のMETAR

飛行場予報(TAF)
発表時間: 8/17 03:09 CST (8/16 19:09 UTC)
予報対象時間: 17日8時 CST ~ 18日8時 CST
風向・風速東北東 4m/s
視程6,000m
少しの雲 雲底高度 90m
全天の4割程度の雲 雲底高度 610m
全天の8割程度の雲 雲底高度 1,220m
TAF ZPPP 161909Z 1700/1724 06004MPS 6000 FEW003 SCT020 BKN040 TX24/1708Z TN16/1700Z